sensor_id;sensor_type;location;lat;lon;timestamp;P1;durP1;ratioP1;P2;durP2;ratioP2
22046;SDS011;11187;49.412;20.956;2022-08-19T00:00:28;26.67;;;24.38;;
22046;SDS011;11187;49.412;20.956;2022-08-19T00:03:02;29.05;;;26.63;;
22046;SDS011;11187;49.412;20.956;2022-08-19T00:05:50;28.85;;;26.27;;
22046;SDS011;11187;49.412;20.956;2022-08-19T00:08:24;29.67;;;27.20;;
22046;SDS011;11187;49.412;20.956;2022-08-19T00:11:10;28.10;;;25.70;;
22046;SDS011;11187;49.412;20.956;2022-08-19T00:13:51;27.23;;;25.00;;
22046;SDS011;11187;49.412;20.956;2022-08-19T00:16:40;30.75;;;28.13;;
22046;SDS011;11187;49.412;20.956;2022-08-19T00:19:35;30.55;;;27.95;;
22046;SDS011;11187;49.412;20.956;2022-08-19T00:22:10;27.40;;;25.00;;
22046;SDS011;11187;49.412;20.956;2022-08-19T00:25:05;25.75;;;23.63;;
22046;SDS011;11187;49.412;20.956;2022-08-19T00:28:09;29.52;;;26.85;;
22046;SDS011;11187;49.412;20.956;2022-08-19T00:30:46;28.15;;;25.73;;
22046;SDS011;11187;49.412;20.956;2022-08-19T00:33:40;28.58;;;26.05;;
22046;SDS011;11187;49.412;20.956;2022-08-19T00:36:35;28.55;;;25.95;;
22046;SDS011;11187;49.412;20.956;2022-08-19T00:39:13;26.92;;;24.55;;
22046;SDS011;11187;49.412;20.956;2022-08-19T00:42:07;27.90;;;25.48;;
22046;SDS011;11187;49.412;20.956;2022-08-19T00:45:08;25.60;;;23.40;;
22046;SDS011;11187;49.412;20.956;2022-08-19T00:47:45;28.80;;;25.95;;
22046;SDS011;11187;49.412;20.956;2022-08-19T00:50:32;28.02;;;25.55;;
22046;SDS011;11187;49.412;20.956;2022-08-19T00:53:18;29.83;;;27.13;;
22046;SDS011;11187;49.412;20.956;2022-08-19T00:56:14;27.50;;;25.20;;
22046;SDS011;11187;49.412;20.956;2022-08-19T00:59:08;28.58;;;26.08;;
22046;SDS011;11187;49.412;20.956;2022-08-19T01:02:02;27.42;;;24.98;;
22046;SDS011;11187;49.412;20.956;2022-08-19T01:04:49;28.25;;;25.95;;
22046;SDS011;11187;49.412;20.956;2022-08-19T01:07:26;29.17;;;26.58;;
22046;SDS011;11187;49.412;20.956;2022-08-19T01:10:18;28.90;;;26.15;;
22046;SDS011;11187;49.412;20.956;2022-08-19T01:12:59;30.08;;;27.58;;
22046;SDS011;11187;49.412;20.956;2022-08-19T01:15:49;27.30;;;24.73;;
22046;SDS011;11187;49.412;20.956;2022-08-19T01:18:47;26.38;;;23.85;;
22046;SDS011;11187;49.412;20.956;2022-08-19T01:21:31;27.88;;;25.58;;
22046;SDS011;11187;49.412;20.956;2022-08-19T01:24:28;27.42;;;24.88;;
22046;SDS011;11187;49.412;20.956;2022-08-19T01:27:36;28.63;;;26.13;;
22046;SDS011;11187;49.412;20.956;2022-08-19T01:30:26;30.45;;;27.65;;
22046;SDS011;11187;49.412;20.956;2022-08-19T01:33:22;29.80;;;27.20;;
22046;SDS011;11187;49.412;20.956;2022-08-19T01:36:16;28.98;;;26.42;;
22046;SDS011;11187;49.412;20.956;2022-08-19T01:39:24;27.15;;;24.75;;
22046;SDS011;11187;49.412;20.956;2022-08-19T01:41:58;27.90;;;25.30;;
22046;SDS011;11187;49.412;20.956;2022-08-19T01:44:52;28.23;;;25.83;;
22046;SDS011;11187;49.412;20.956;2022-08-19T01:47:46;29.33;;;26.90;;
22046;SDS011;11187;49.412;20.956;2022-08-19T01:50:42;28.45;;;26.05;;
22046;SDS011;11187;49.412;20.956;2022-08-19T01:53:36;27.75;;;25.23;;
22046;SDS011;11187;49.412;20.956;2022-08-19T01:56:11;27.15;;;24.75;;
22046;SDS011;11187;49.412;20.956;2022-08-19T01:59:06;27.23;;;24.90;;
22046;SDS011;11187;49.412;20.956;2022-08-19T02:02:06;27.67;;;25.38;;
22046;SDS011;11187;49.412;20.956;2022-08-19T02:04:41;26.77;;;24.48;;
22046;SDS011;11187;49.412;20.956;2022-08-19T02:07:27;28.13;;;25.85;;
22046;SDS011;11187;49.412;20.956;2022-08-19T02:10:06;27.50;;;25.10;;
22046;SDS011;11187;49.412;20.956;2022-08-19T02:12:55;30.98;;;26.10;;
22046;SDS011;11187;49.412;20.956;2022-08-19T02:15:29;28.27;;;25.67;;
22046;SDS011;11187;49.412;20.956;2022-08-19T02:18:22;27.45;;;24.85;;
22046;SDS011;11187;49.412;20.956;2022-08-19T02:20:56;27.52;;;25.23;;
22046;SDS011;11187;49.412;20.956;2022-08-19T02:23:42;28.35;;;25.88;;
22046;SDS011;11187;49.412;20.956;2022-08-19T02:26:16;27.42;;;25.13;;
22046;SDS011;11187;49.412;20.956;2022-08-19T02:29:10;28.13;;;25.42;;
22046;SDS011;11187;49.412;20.956;2022-08-19T02:31:44;27.80;;;25.48;;
22046;SDS011;11187;49.412;20.956;2022-08-19T02:34:40;27.13;;;24.73;;
22046;SDS011;11187;49.412;20.956;2022-08-19T02:37:15;26.77;;;24.30;;
22046;SDS011;11187;49.412;20.956;2022-08-19T02:40:27;25.35;;;23.15;;
22046;SDS011;11187;49.412;20.956;2022-08-19T02:43:02;28.05;;;25.65;;
22046;SDS011;11187;49.412;20.956;2022-08-19T02:45:57;30.55;;;27.88;;
22046;SDS011;11187;49.412;20.956;2022-08-19T02:48:52;27.17;;;24.88;;
22046;SDS011;11187;49.412;20.956;2022-08-19T02:51:28;27.65;;;25.33;;
22046;SDS011;11187;49.412;20.956;2022-08-19T02:54:26;28.20;;;25.85;;
22046;SDS011;11187;49.412;20.956;2022-08-19T02:57:01;29.95;;;27.45;;
22046;SDS011;11187;49.412;20.956;2022-08-19T02:59:47;29.65;;;27.10;;
22046;SDS011;11187;49.412;20.956;2022-08-19T03:02:21;27.70;;;25.20;;
22046;SDS011;11187;49.412;20.956;2022-08-19T03:05:08;28.15;;;25.52;;
22046;SDS011;11187;49.412;20.956;2022-08-19T03:07:43;28.73;;;26.10;;
22046;SDS011;11187;49.412;20.956;2022-08-19T03:10:29;29.38;;;26.77;;
22046;SDS011;11187;49.412;20.956;2022-08-19T03:13:03;27.23;;;24.42;;
22046;SDS011;11187;49.412;20.956;2022-08-19T03:15:51;28.23;;;25.42;;
22046;SDS011;11187;49.412;20.956;2022-08-19T03:18:50;29.05;;;26.63;;
22046;SDS011;11187;49.412;20.956;2022-08-19T03:21:45;28.30;;;25.80;;
22046;SDS011;11187;49.412;20.956;2022-08-19T03:24:19;28.70;;;26.13;;
22046;SDS011;11187;49.412;20.956;2022-08-19T03:27:06;29.25;;;26.55;;
22046;SDS011;11187;49.412;20.956;2022-08-19T03:29:40;27.80;;;25.23;;
22046;SDS011;11187;49.412;20.956;2022-08-19T03:32:33;28.73;;;26.33;;
22046;SDS011;11187;49.412;20.956;2022-08-19T03:35:35;28.27;;;25.98;;
22046;SDS011;11187;49.412;20.956;2022-08-19T03:38:12;27.77;;;25.40;;
22046;SDS011;11187;49.412;20.956;2022-08-19T03:41:02;26.40;;;24.10;;
22046;SDS011;11187;49.412;20.956;2022-08-19T03:43:37;28.38;;;25.98;;
22046;SDS011;11187;49.412;20.956;2022-08-19T03:46:29;26.60;;;24.02;;
22046;SDS011;11187;49.412;20.956;2022-08-19T03:49:09;27.05;;;24.52;;
22046;SDS011;11187;49.412;20.956;2022-08-19T03:52:06;27.17;;;24.73;;
22046;SDS011;11187;49.412;20.956;2022-08-19T03:55:00;28.52;;;26.05;;
22046;SDS011;11187;49.412;20.956;2022-08-19T03:57:34;28.50;;;25.90;;
22046;SDS011;11187;49.412;20.956;2022-08-19T04:00:20;28.10;;;25.75;;
22046;SDS011;11187;49.412;20.956;2022-08-19T04:02:54;25.45;;;23.25;;
22046;SDS011;11187;49.412;20.956;2022-08-19T04:05:40;26.60;;;24.20;;
22046;SDS011;11187;49.412;20.956;2022-08-19T04:08:14;27.90;;;25.15;;
22046;SDS011;11187;49.412;20.956;2022-08-19T04:11:05;27.67;;;25.15;;
22046;SDS011;11187;49.412;20.956;2022-08-19T04:13:40;27.52;;;25.02;;
22046;SDS011;11187;49.412;20.956;2022-08-19T04:16:35;26.90;;;24.50;;
22046;SDS011;11187;49.412;20.956;2022-08-19T04:19:29;28.55;;;25.70;;
22046;SDS011;11187;49.412;20.956;2022-08-19T04:22:03;26.85;;;24.55;;
22046;SDS011;11187;49.412;20.956;2022-08-19T04:24:50;27.70;;;24.92;;
22046;SDS011;11187;49.412;20.956;2022-08-19T04:27:26;25.65;;;23.33;;
22046;SDS011;11187;49.412;20.956;2022-08-19T04:30:13;28.65;;;25.95;;
22046;SDS011;11187;49.412;20.956;2022-08-19T04:32:47;26.38;;;23.48;;
22046;SDS011;11187;49.412;20.956;2022-08-19T04:35:34;26.20;;;23.35;;
22046;SDS011;11187;49.412;20.956;2022-08-19T04:38:09;27.40;;;24.40;;
22046;SDS011;11187;49.412;20.956;2022-08-19T04:40:56;32.03;;;28.30;;
22046;SDS011;11187;49.412;20.956;2022-08-19T04:43:49;31.30;;;28.10;;
22046;SDS011;11187;49.412;20.956;2022-08-19T04:46:42;29.02;;;26.13;;
22046;SDS011;11187;49.412;20.956;2022-08-19T04:49:20;26.95;;;24.23;;
22046;SDS011;11187;49.412;20.956;2022-08-19T04:52:07;27.00;;;24.50;;
22046;SDS011;11187;49.412;20.956;2022-08-19T04:54:41;27.60;;;24.45;;
22046;SDS011;11187;49.412;20.956;2022-08-19T04:57:27;27.73;;;24.65;;
22046;SDS011;11187;49.412;20.956;2022-08-19T05:00:01;27.23;;;24.40;;
22046;SDS011;11187;49.412;20.956;2022-08-19T05:02:56;26.55;;;24.08;;
22046;SDS011;11187;49.412;20.956;2022-08-19T05:05:33;27.33;;;24.80;;
22046;SDS011;11187;49.412;20.956;2022-08-19T05:08:26;27.85;;;25.33;;
22046;SDS011;11187;49.412;20.956;2022-08-19T05:11:09;26.25;;;23.80;;
22046;SDS011;11187;49.412;20.956;2022-08-19T05:14:07;26.85;;;24.17;;
22046;SDS011;11187;49.412;20.956;2022-08-19T05:17:01;28.08;;;25.58;;
22046;SDS011;11187;49.412;20.956;2022-08-19T05:20:08;27.52;;;25.08;;
22046;SDS011;11187;49.412;20.956;2022-08-19T05:23:00;28.15;;;25.75;;
22046;SDS011;11187;49.412;20.956;2022-08-19T05:25:58;25.10;;;22.88;;
22046;SDS011;11187;49.412;20.956;2022-08-19T05:28:34;28.33;;;25.63;;
22046;SDS011;11187;49.412;20.956;2022-08-19T05:31:21;27.83;;;25.05;;
22046;SDS011;11187;49.412;20.956;2022-08-19T05:33:54;26.92;;;24.42;;
22046;SDS011;11187;49.412;20.956;2022-08-19T05:36:41;27.17;;;24.58;;
22046;SDS011;11187;49.412;20.956;2022-08-19T05:39:18;29.52;;;26.50;;
22046;SDS011;11187;49.412;20.956;2022-08-19T05:42:07;28.80;;;26.10;;
22046;SDS011;11187;49.412;20.956;2022-08-19T05:44:43;27.80;;;25.30;;
22046;SDS011;11187;49.412;20.956;2022-08-19T05:47:29;27.30;;;25.00;;
22046;SDS011;11187;49.412;20.956;2022-08-19T05:50:07;29.92;;;27.05;;
22046;SDS011;11187;49.412;20.956;2022-08-19T05:52:54;26.65;;;24.27;;
22046;SDS011;11187;49.412;20.956;2022-08-19T05:55:28;25.85;;;23.45;;
22046;SDS011;11187;49.412;20.956;2022-08-19T05:58:14;26.85;;;24.25;;
22046;SDS011;11187;49.412;20.956;2022-08-19T06:00:49;27.60;;;25.30;;
22046;SDS011;11187;49.412;20.956;2022-08-19T06:03:44;25.45;;;23.00;;
22046;SDS011;11187;49.412;20.956;2022-08-19T06:06:18;25.75;;;23.38;;
22046;SDS011;11187;49.412;20.956;2022-08-19T06:09:13;26.17;;;23.98;;
22046;SDS011;11187;49.412;20.956;2022-08-19T06:12:07;28.05;;;25.63;;
22046;SDS011;11187;49.412;20.956;2022-08-19T06:14:40;27.40;;;24.92;;
22046;SDS011;11187;49.412;20.956;2022-08-19T06:17:40;23.13;;;20.95;;
22046;SDS011;11187;49.412;20.956;2022-08-19T06:20:33;26.60;;;24.42;;
22046;SDS011;11187;49.412;20.956;2022-08-19T06:23:34;26.67;;;24.45;;
22046;SDS011;11187;49.412;20.956;2022-08-19T06:26:11;25.42;;;23.13;;
22046;SDS011;11187;49.412;20.956;2022-08-19T06:28:58;27.80;;;25.15;;
22046;SDS011;11187;49.412;20.956;2022-08-19T06:31:32;23.58;;;21.67;;
22046;SDS011;11187;49.412;20.956;2022-08-19T06:34:20;24.48;;;22.17;;
22046;SDS011;11187;49.412;20.956;2022-08-19T06:36:54;27.83;;;24.80;;
22046;SDS011;11187;49.412;20.956;2022-08-19T06:39:43;27.63;;;25.23;;
22046;SDS011;11187;49.412;20.956;2022-08-19T06:42:17;25.13;;;22.83;;
22046;SDS011;11187;49.412;20.956;2022-08-19T06:45:10;26.88;;;24.67;;
22046;SDS011;11187;49.412;20.956;2022-08-19T06:48:14;24.38;;;22.10;;
22046;SDS011;11187;49.412;20.956;2022-08-19T06:50:51;24.98;;;22.77;;
22046;SDS011;11187;49.412;20.956;2022-08-19T06:53:37;26.83;;;24.50;;
22046;SDS011;11187;49.412;20.956;2022-08-19T06:56:20;27.33;;;25.05;;
22046;SDS011;11187;49.412;20.956;2022-08-19T06:59:22;27.52;;;25.15;;
22046;SDS011;11187;49.412;20.956;2022-08-19T07:02:03;27.30;;;24.80;;
22046;SDS011;11187;49.412;20.956;2022-08-19T07:04:50;27.50;;;25.33;;
22046;SDS011;11187;49.412;20.956;2022-08-19T07:07:24;27.13;;;24.77;;
22046;SDS011;11187;49.412;20.956;2022-08-19T07:10:12;24.45;;;22.10;;
22046;SDS011;11187;49.412;20.956;2022-08-19T07:12:46;24.95;;;22.60;;
22046;SDS011;11187;49.412;20.956;2022-08-19T07:15:39;25.88;;;23.88;;
22046;SDS011;11187;49.412;20.956;2022-08-19T07:18:34;26.20;;;24.00;;
22046;SDS011;11187;49.412;20.956;2022-08-19T07:21:28;26.85;;;24.27;;
22046;SDS011;11187;49.412;20.956;2022-08-19T07:24:23;25.92;;;23.73;;
22046;SDS011;11187;49.412;20.956;2022-08-19T07:27:00;24.00;;;22.10;;
22046;SDS011;11187;49.412;20.956;2022-08-19T07:29:53;23.17;;;21.27;;
22046;SDS011;11187;49.412;20.956;2022-08-19T07:32:27;26.10;;;24.10;;
22046;SDS011;11187;49.412;20.956;2022-08-19T07:35:13;25.73;;;23.45;;
22046;SDS011;11187;49.412;20.956;2022-08-19T07:37:47;24.38;;;22.25;;
22046;SDS011;11187;49.412;20.956;2022-08-19T07:40:40;25.17;;;23.30;;
22046;SDS011;11187;49.412;20.956;2022-08-19T07:43:15;24.92;;;22.63;;
22046;SDS011;11187;49.412;20.956;2022-08-19T07:46:14;23.60;;;21.80;;
22046;SDS011;11187;49.412;20.956;2022-08-19T07:48:48;25.70;;;23.52;;
22046;SDS011;11187;49.412;20.956;2022-08-19T07:51:35;25.38;;;23.48;;
22046;SDS011;11187;49.412;20.956;2022-08-19T08:06:45;22.08;;;20.25;;
22046;SDS011;11187;49.412;20.956;2022-08-19T08:09:39;25.67;;;23.60;;
22046;SDS011;11187;49.412;20.956;2022-08-19T08:12:34;25.88;;;23.88;;
22046;SDS011;11187;49.412;20.956;2022-08-19T08:15:36;25.17;;;23.27;;
22046;SDS011;11187;49.412;20.956;2022-08-19T08:18:24;22.25;;;20.42;;
22046;SDS011;11187;49.412;20.956;2022-08-19T08:21:19;20.80;;;19.20;;
22046;SDS011;11187;49.412;20.956;2022-08-19T08:24:07;22.63;;;20.73;;
22046;SDS011;11187;49.412;20.956;2022-08-19T08:26:47;25.35;;;23.27;;
22046;SDS011;11187;49.412;20.956;2022-08-19T08:29:30;21.75;;;19.80;;
22046;SDS011;11187;49.412;20.956;2022-08-19T08:32:15;21.65;;;19.90;;
22046;SDS011;11187;49.412;20.956;2022-08-19T08:34:57;20.02;;;18.40;;
22046;SDS011;11187;49.412;20.956;2022-08-19T08:37:37;38.13;;;33.25;;
22046;SDS011;11187;49.412;20.956;2022-08-19T08:40:27;33.50;;;29.95;;
22046;SDS011;11187;49.412;20.956;2022-08-19T08:43:29;30.35;;;26.08;;
22046;SDS011;11187;49.412;20.956;2022-08-19T08:49:41;24.95;;;22.95;;
22046;SDS011;11187;49.412;20.956;2022-08-19T08:52:34;24.33;;;22.23;;
22046;SDS011;11187;49.412;20.956;2022-08-19T08:55:13;23.98;;;21.95;;
22046;SDS011;11187;49.412;20.956;2022-08-19T09:01:42;24.35;;;22.17;;
22046;SDS011;11187;49.412;20.956;2022-08-19T09:04:36;21.50;;;19.73;;
22046;SDS011;11187;49.412;20.956;2022-08-19T09:17:04;22.48;;;20.67;;
22046;SDS011;11187;49.412;20.956;2022-08-19T09:19:59;21.75;;;20.05;;
22046;SDS011;11187;49.412;20.956;2022-08-19T09:23:07;23.98;;;22.20;;
22046;SDS011;11187;49.412;20.956;2022-08-19T09:26:18;25.35;;;21.75;;
22046;SDS011;11187;49.412;20.956;2022-08-19T09:29:13;25.77;;;23.50;;
22046;SDS011;11187;49.412;20.956;2022-08-19T09:32:01;23.10;;;21.23;;
22046;SDS011;11187;49.412;20.956;2022-08-19T09:34:52;26.83;;;24.45;;
22046;SDS011;11187;49.412;20.956;2022-08-19T09:37:49;25.10;;;23.05;;
22046;SDS011;11187;49.412;20.956;2022-08-19T09:40:44;22.95;;;20.70;;
22046;SDS011;11187;49.412;20.956;2022-08-19T09:43:17;22.58;;;20.52;;
22046;SDS011;11187;49.412;20.956;2022-08-19T09:46:24;23.75;;;21.63;;
22046;SDS011;11187;49.412;20.956;2022-08-19T09:48:59;26.13;;;24.15;;
22046;SDS011;11187;49.412;20.956;2022-08-19T09:51:53;23.98;;;21.98;;
22046;SDS011;11187;49.412;20.956;2022-08-19T09:54:29;22.98;;;21.23;;
22046;SDS011;11187;49.412;20.956;2022-08-19T09:57:31;22.45;;;20.60;;
22046;SDS011;11187;49.412;20.956;2022-08-19T10:00:25;22.77;;;20.98;;
22046;SDS011;11187;49.412;20.956;2022-08-19T10:03:19;24.15;;;22.17;;
22046;SDS011;11187;49.412;20.956;2022-08-19T10:05:56;25.13;;;23.02;;
22046;SDS011;11187;49.412;20.956;2022-08-19T10:08:53;23.20;;;21.13;;
22046;SDS011;11187;49.412;20.956;2022-08-19T10:11:26;23.27;;;21.15;;
22046;SDS011;11187;49.412;20.956;2022-08-19T10:14:20;23.95;;;22.30;;
22046;SDS011;11187;49.412;20.956;2022-08-19T10:16:56;25.13;;;23.17;;
22046;SDS011;11187;49.412;20.956;2022-08-19T10:20:00;23.52;;;21.83;;
22046;SDS011;11187;49.412;20.956;2022-08-19T10:22:54;22.75;;;21.02;;
22046;SDS011;11187;49.412;20.956;2022-08-19T10:25:31;23.38;;;21.67;;
22046;SDS011;11187;49.412;20.956;2022-08-19T10:28:22;21.35;;;19.67;;
22046;SDS011;11187;49.412;20.956;2022-08-19T10:30:55;22.90;;;20.92;;
22046;SDS011;11187;49.412;20.956;2022-08-19T10:33:43;23.55;;;21.50;;
22046;SDS011;11187;49.412;20.956;2022-08-19T10:36:20;22.48;;;20.67;;
22046;SDS011;11187;49.412;20.956;2022-08-19T10:39:35;21.13;;;19.33;;
22046;SDS011;11187;49.412;20.956;2022-08-19T10:42:30;23.90;;;21.95;;
22046;SDS011;11187;49.412;20.956;2022-08-19T10:45:04;23.45;;;21.58;;
22046;SDS011;11187;49.412;20.956;2022-08-19T10:47:52;22.75;;;20.85;;
22046;SDS011;11187;49.412;20.956;2022-08-19T10:50:25;22.05;;;20.35;;
22046;SDS011;11187;49.412;20.956;2022-08-19T10:53:31;23.45;;;21.42;;
22046;SDS011;11187;49.412;20.956;2022-08-19T10:56:05;23.42;;;21.42;;
22046;SDS011;11187;49.412;20.956;2022-08-19T10:59:20;23.17;;;21.38;;
22046;SDS011;11187;49.412;20.956;2022-08-19T11:02:19;21.88;;;19.83;;
22046;SDS011;11187;49.412;20.956;2022-08-19T11:04:52;19.92;;;18.23;;
22046;SDS011;11187;49.412;20.956;2022-08-19T11:07:51;21.38;;;19.13;;
22046;SDS011;11187;49.412;20.956;2022-08-19T11:10:28;22.02;;;20.00;;
22046;SDS011;11187;49.412;20.956;2022-08-19T11:13:30;24.08;;;22.15;;
22046;SDS011;11187;49.412;20.956;2022-08-19T11:16:08;21.42;;;19.83;;
22046;SDS011;11187;49.412;20.956;2022-08-19T11:19:00;23.23;;;20.67;;
22046;SDS011;11187;49.412;20.956;2022-08-19T11:21:54;22.30;;;20.15;;
22046;SDS011;11187;49.412;20.956;2022-08-19T11:24:55;25.00;;;22.55;;
22046;SDS011;11187;49.412;20.956;2022-08-19T11:27:49;26.73;;;24.67;;
22046;SDS011;11187;49.412;20.956;2022-08-19T11:30:23;24.60;;;22.63;;
22046;SDS011;11187;49.412;20.956;2022-08-19T11:33:17;21.95;;;20.05;;
22046;SDS011;11187;49.412;20.956;2022-08-19T11:35:50;23.80;;;21.90;;
22046;SDS011;11187;49.412;20.956;2022-08-19T11:38:44;25.60;;;23.40;;
22046;SDS011;11187;49.412;20.956;2022-08-19T11:41:22;23.67;;;21.77;;
22046;SDS011;11187;49.412;20.956;2022-08-19T11:44:16;24.27;;;22.30;;
22046;SDS011;11187;49.412;20.956;2022-08-19T11:46:49;23.63;;;21.20;;
22046;SDS011;11187;49.412;20.956;2022-08-19T11:49:39;24.40;;;22.15;;
22046;SDS011;11187;49.412;20.956;2022-08-19T11:52:12;24.25;;;22.05;;
22046;SDS011;11187;49.412;20.956;2022-08-19T11:54:59;24.45;;;22.20;;
22046;SDS011;11187;49.412;20.956;2022-08-19T11:57:32;23.60;;;21.60;;
22046;SDS011;11187;49.412;20.956;2022-08-19T12:00:27;22.75;;;21.05;;
22046;SDS011;11187;49.412;20.956;2022-08-19T12:03:00;23.45;;;21.45;;
22046;SDS011;11187;49.412;20.956;2022-08-19T12:05:55;25.85;;;23.75;;
22046;SDS011;11187;49.412;20.956;2022-08-19T12:08:28;24.60;;;22.70;;
22046;SDS011;11187;49.412;20.956;2022-08-19T12:11:15;22.65;;;20.70;;
22046;SDS011;11187;49.412;20.956;2022-08-19T12:13:48;22.13;;;20.23;;
22046;SDS011;11187;49.412;20.956;2022-08-19T12:16:35;22.83;;;21.08;;
22046;SDS011;11187;49.412;20.956;2022-08-19T12:19:31;24.15;;;22.33;;
22046;SDS011;11187;49.412;20.956;2022-08-19T12:22:26;25.08;;;23.17;;
22046;SDS011;11187;49.412;20.956;2022-08-19T12:25:20;23.70;;;21.80;;
22046;SDS011;11187;49.412;20.956;2022-08-19T12:28:14;24.38;;;22.30;;
22046;SDS011;11187;49.412;20.956;2022-08-19T12:30:48;24.50;;;22.48;;
22046;SDS011;11187;49.412;20.956;2022-08-19T12:33:43;22.55;;;20.85;;
22046;SDS011;11187;49.412;20.956;2022-08-19T12:36:39;22.50;;;20.60;;
22046;SDS011;11187;49.412;20.956;2022-08-19T12:39:12;22.48;;;20.55;;
22046;SDS011;11187;49.412;20.956;2022-08-19T12:41:59;21.27;;;19.65;;
22046;SDS011;11187;49.412;20.956;2022-08-19T12:44:32;25.35;;;23.20;;
22046;SDS011;11187;49.412;20.956;2022-08-19T12:47:21;24.35;;;22.35;;
22046;SDS011;11187;49.412;20.956;2022-08-19T12:49:57;22.50;;;20.65;;
22046;SDS011;11187;49.412;20.956;2022-08-19T12:52:48;22.25;;;20.55;;
22046;SDS011;11187;49.412;20.956;2022-08-19T12:55:21;22.40;;;20.38;;
22046;SDS011;11187;49.412;20.956;2022-08-19T12:58:09;23.75;;;21.92;;
22046;SDS011;11187;49.412;20.956;2022-08-19T13:00:43;22.95;;;20.95;;
22046;SDS011;11187;49.412;20.956;2022-08-19T13:03:37;23.23;;;21.27;;
22046;SDS011;11187;49.412;20.956;2022-08-19T13:06:31;22.55;;;20.65;;
22046;SDS011;11187;49.412;20.956;2022-08-19T13:09:25;24.02;;;22.02;;
22046;SDS011;11187;49.412;20.956;2022-08-19T13:11:58;22.77;;;20.73;;
22046;SDS011;11187;49.412;20.956;2022-08-19T13:14:47;21.88;;;20.15;;
22046;SDS011;11187;49.412;20.956;2022-08-19T13:17:22;24.25;;;22.23;;
22046;SDS011;11187;49.412;20.956;2022-08-19T13:20:09;21.92;;;20.13;;
22046;SDS011;11187;49.412;20.956;2022-08-19T13:22:43;22.48;;;20.77;;
22046;SDS011;11187;49.412;20.956;2022-08-19T13:25:37;23.17;;;21.25;;
22046;SDS011;11187;49.412;20.956;2022-08-19T13:28:31;24.70;;;22.55;;
22046;SDS011;11187;49.412;20.956;2022-08-19T13:31:44;23.95;;;22.17;;
22046;SDS011;11187;49.412;20.956;2022-08-19T13:34:57;21.58;;;19.80;;
22046;SDS011;11187;49.412;20.956;2022-08-19T13:37:55;23.48;;;21.55;;
22046;SDS011;11187;49.412;20.956;2022-08-19T13:40:28;24.45;;;22.23;;
22046;SDS011;11187;49.412;20.956;2022-08-19T13:43:23;23.08;;;21.08;;
22046;SDS011;11187;49.412;20.956;2022-08-19T13:45:58;23.55;;;21.40;;
22046;SDS011;11187;49.412;20.956;2022-08-19T13:48:45;22.90;;;21.10;;
22046;SDS011;11187;49.412;20.956;2022-08-19T13:51:20;23.33;;;21.50;;
22046;SDS011;11187;49.412;20.956;2022-08-19T13:54:14;24.52;;;22.55;;
22046;SDS011;11187;49.412;20.956;2022-08-19T13:57:08;24.00;;;22.00;;
22046;SDS011;11187;49.412;20.956;2022-08-19T14:00:03;23.52;;;21.40;;
22046;SDS011;11187;49.412;20.956;2022-08-19T14:02:38;23.35;;;21.45;;
22046;SDS011;11187;49.412;20.956;2022-08-19T14:05:25;25.63;;;23.45;;
22046;SDS011;11187;49.412;20.956;2022-08-19T14:08:00;25.33;;;23.25;;
22046;SDS011;11187;49.412;20.956;2022-08-19T14:10:47;24.65;;;22.83;;
22046;SDS011;11187;49.412;20.956;2022-08-19T14:13:22;24.23;;;22.17;;
22046;SDS011;11187;49.412;20.956;2022-08-19T14:16:10;24.15;;;22.00;;
22046;SDS011;11187;49.412;20.956;2022-08-19T14:18:48;26.45;;;24.35;;
22046;SDS011;11187;49.412;20.956;2022-08-19T14:21:35;22.92;;;21.00;;
22046;SDS011;11187;49.412;20.956;2022-08-19T14:24:08;25.13;;;23.13;;
22046;SDS011;11187;49.412;20.956;2022-08-19T14:26:55;25.05;;;23.15;;
22046;SDS011;11187;49.412;20.956;2022-08-19T14:29:31;28.80;;;23.70;;
22046;SDS011;11187;49.412;20.956;2022-08-19T14:32:27;26.88;;;23.33;;
22046;SDS011;11187;49.412;20.956;2022-08-19T14:35:03;26.13;;;23.30;;
22046;SDS011;11187;49.412;20.956;2022-08-19T14:37:52;24.83;;;22.90;;
22046;SDS011;11187;49.412;20.956;2022-08-19T14:40:28;22.92;;;20.67;;
22046;SDS011;11187;49.412;20.956;2022-08-19T14:43:16;25.50;;;23.40;;
22046;SDS011;11187;49.412;20.956;2022-08-19T14:45:50;24.77;;;22.52;;
22046;SDS011;11187;49.412;20.956;2022-08-19T14:48:37;23.17;;;21.25;;
22046;SDS011;11187;49.412;20.956;2022-08-19T14:51:16;24.48;;;22.55;;
22046;SDS011;11187;49.412;20.956;2022-08-19T14:54:03;26.13;;;23.70;;
22046;SDS011;11187;49.412;20.956;2022-08-19T14:56:36;26.73;;;24.42;;
22046;SDS011;11187;49.412;20.956;2022-08-19T14:59:30;24.85;;;22.83;;
22046;SDS011;11187;49.412;20.956;2022-08-19T15:02:03;25.05;;;23.02;;
22046;SDS011;11187;49.412;20.956;2022-08-19T15:05:10;26.48;;;23.92;;
22046;SDS011;11187;49.412;20.956;2022-08-19T15:07:43;26.80;;;24.65;;
22046;SDS011;11187;49.412;20.956;2022-08-19T15:10:40;22.35;;;20.55;;
22046;SDS011;11187;49.412;20.956;2022-08-19T15:13:34;24.10;;;21.83;;
22046;SDS011;11187;49.412;20.956;2022-08-19T15:16:07;25.00;;;22.85;;
22046;SDS011;11187;49.412;20.956;2022-08-19T15:19:04;25.45;;;23.23;;
22046;SDS011;11187;49.412;20.956;2022-08-19T15:21:58;24.17;;;22.13;;
22046;SDS011;11187;49.412;20.956;2022-08-19T15:24:31;24.67;;;22.77;;
22046;SDS011;11187;49.412;20.956;2022-08-19T15:27:27;23.65;;;21.70;;
22046;SDS011;11187;49.412;20.956;2022-08-19T15:30:22;24.52;;;22.35;;
22046;SDS011;11187;49.412;20.956;2022-08-19T15:32:58;25.48;;;23.48;;
22046;SDS011;11187;49.412;20.956;2022-08-19T15:35:52;23.05;;;20.85;;
22046;SDS011;11187;49.412;20.956;2022-08-19T15:38:46;24.17;;;22.38;;
22046;SDS011;11187;49.412;20.956;2022-08-19T15:41:21;24.83;;;22.70;;
22046;SDS011;11187;49.412;20.956;2022-08-19T15:44:18;24.67;;;22.45;;
22046;SDS011;11187;49.412;20.956;2022-08-19T15:47:12;25.27;;;22.83;;
22046;SDS011;11187;49.412;20.956;2022-08-19T15:50:17;22.65;;;20.70;;
22046;SDS011;11187;49.412;20.956;2022-08-19T15:52:56;24.48;;;22.38;;
22046;SDS011;11187;49.412;20.956;2022-08-19T15:55:45;26.10;;;23.92;;
22046;SDS011;11187;49.412;20.956;2022-08-19T15:58:20;25.02;;;22.92;;
22046;SDS011;11187;49.412;20.956;2022-08-19T16:01:25;24.27;;;21.48;;
22046;SDS011;11187;49.412;20.956;2022-08-19T16:04:06;23.70;;;21.77;;
22046;SDS011;11187;49.412;20.956;2022-08-19T16:07:11;26.65;;;24.02;;
22046;SDS011;11187;49.412;20.956;2022-08-19T16:09:48;25.13;;;23.02;;
22046;SDS011;11187;49.412;20.956;2022-08-19T16:13:02;24.13;;;22.23;;
22046;SDS011;11187;49.412;20.956;2022-08-19T16:15:57;23.08;;;20.98;;
22046;SDS011;11187;49.412;20.956;2022-08-19T16:18:30;24.23;;;22.25;;
22046;SDS011;11187;49.412;20.956;2022-08-19T16:21:24;21.92;;;20.20;;
22046;SDS011;11187;49.412;20.956;2022-08-19T16:24:07;24.00;;;21.77;;
22046;SDS011;11187;49.412;20.956;2022-08-19T16:26:55;23.50;;;21.60;;
22046;SDS011;11187;49.412;20.956;2022-08-19T16:29:29;22.35;;;20.55;;